Time;durP1;ratioP1;P1;durP2;ratioP2;P2;SDS_P1;SDS_P2;PMS_P1;PMS_P2;Temp;Humidity;BMP_temperature;BMP_pressure;BME280_temperature;BME280_humidity;BME280_pressure;Samples;Min_cycle;Max_cycle;Signal;HPM_P1;HPM_P2
2024/02/07 00:00:34;;;;;;;4.65;2.38;;;;;;;;;;5027892;28;20206;-91
2024/02/07 00:03:40;;;;;;;8.40;2.90;;;;;;;;;;5027090;28;20244;-91
2024/02/07 00:06:47;;;;;;;3.80;1.90;;;;;;;;;;5027468;28;20186;-89
2024/02/07 00:09:52;;;;;;;4.88;2.22;;;;;;;;;;5028763;28;20180;-89
2024/02/07 00:12:58;;;;;;;5.45;2.50;;;;;;;;;;5032835;28;20215;-88
2024/02/07 00:16:05;;;;;;;5.88;2.65;;;;;;;;;;5028729;28;20569;-90
2024/02/07 00:19:10;;;;;;;4.68;2.30;;;;;;;;;;5027374;28;20197;-89
2024/02/07 00:22:17;;;;;;;5.95;2.38;;;;;;;;;;5027207;28;20172;-91
2024/02/07 00:25:24;;;;;;;7.18;2.22;;;;;;;;;;5030788;28;20663;-91
2024/02/07 00:28:29;;;;;;;4.43;2.20;;;;;;;;;;5047515;28;20191;-92
2024/02/07 00:31:35;;;;;;;4.78;1.95;;;;;;;;;;5045575;28;20251;-92
2024/02/07 00:34:40;;;;;;;4.85;2.30;;;;;;;;;;5045421;28;20345;-89
2024/02/07 00:37:47;;;;;;;6.03;2.47;;;;;;;;;;5051354;28;20184;-90
2024/02/07 00:40:55;;;;;;;5.00;2.05;;;;;;;;;;5045041;28;20191;-92
2024/02/07 00:44:00;;;;;;;4.25;2.00;;;;;;;;;;5045156;28;20257;-89
2024/02/07 00:47:06;;;;;;;4.45;2.25;;;;;;;;;;5044227;28;20203;-91
2024/02/07 00:50:11;;;;;;;6.75;2.47;;;;;;;;;;5045862;28;20184;-90
2024/02/07 00:53:18;;;;;;;6.25;2.20;;;;;;;;;;5046327;28;20219;-90
2024/02/07 00:56:23;;;;;;;6.55;2.22;;;;;;;;;;5044710;28;20187;-90
2024/02/07 01:02:48;;;;;;;8.32;3.00;;;;;;;;;;5048967;28;20246;-89
2024/02/07 01:05:54;;;;;;;8.93;2.85;;;;;;;;;;5047238;28;20187;-90
2024/02/07 01:09:02;;;;;;;5.97;2.53;;;;;;;;;;5047240;28;20188;-91
2024/02/07 01:12:09;;;;;;;9.18;2.80;;;;;;;;;;5045568;28;20212;-90
2024/02/07 01:15:14;;;;;;;11.02;3.22;;;;;;;;;;5048260;28;20272;-91
2024/02/07 01:18:19;;;;;;;7.15;2.17;;;;;;;;;;5046774;28;20180;-90
2024/02/07 01:21:24;;;;;;;5.55;2.15;;;;;;;;;;5047611;28;20184;-90
2024/02/07 01:24:34;;;;;;;6.95;2.50;;;;;;;;;;5047901;28;20176;-91
2024/02/07 01:27:40;;;;;;;3.45;1.95;;;;;;;;;;5047492;28;20198;-90
2024/02/07 01:30:46;;;;;;;13.05;2.88;;;;;;;;;;5048510;28;20283;-91
2024/02/07 01:33:54;;;;;;;5.35;2.45;;;;;;;;;;5048259;28;20265;-89
2024/02/07 01:36:59;;;;;;;5.50;2.47;;;;;;;;;;5047421;28;20267;-90
2024/02/07 01:40:09;;;;;;;6.75;2.85;;;;;;;;;;5048403;28;20196;-88
2024/02/07 01:43:14;;;;;;;9.00;2.70;;;;;;;;;;5046328;28;20230;-91
2024/02/07 01:46:19;;;;;;;5.78;2.30;;;;;;;;;;5045291;28;20227;-90
2024/02/07 01:49:25;;;;;;;7.25;2.30;;;;;;;;;;5029988;28;20220;-91
2024/02/07 01:52:35;;;;;;;6.65;2.17;;;;;;;;;;5026253;28;20248;-91
2024/02/07 01:55:49;;;;;;;6.68;2.30;;;;;;;;;;5025946;28;20261;-90
2024/02/07 01:58:54;;;;;;;5.15;2.30;;;;;;;;;;5024681;28;20200;-91
2024/02/07 02:01:59;;;;;;;10.52;2.30;;;;;;;;;;5026458;28;20203;-90
2024/02/07 02:05:04;;;;;;;7.00;2.47;;;;;;;;;;5025186;28;20188;-89
2024/02/07 02:08:10;;;;;;;5.35;2.30;;;;;;;;;;5026137;28;20215;-91
2024/02/07 02:11:19;;;;;;;5.43;2.60;;;;;;;;;;5027106;28;20192;-91
2024/02/07 02:14:24;;;;;;;10.52;2.58;;;;;;;;;;5027701;28;20181;-90
2024/02/07 02:17:30;;;;;;;5.68;2.58;;;;;;;;;;5027151;28;20176;-90
2024/02/07 02:20:36;;;;;;;7.35;2.60;;;;;;;;;;5042379;28;20196;-89
2024/02/07 02:23:53;;;;;;;5.00;2.53;;;;;;;;;;5045892;28;20256;-89
2024/02/07 02:27:12;;;;;;;9.13;2.33;;;;;;;;;;5043922;28;20585;-90
2024/02/07 02:30:31;;;;;;;7.97;2.90;;;;;;;;;;5046490;28;20168;-88
2024/02/07 02:33:38;;;;;;;5.22;2.30;;;;;;;;;;5044559;28;20298;-91
2024/02/07 02:36:43;;;;;;;10.02;2.63;;;;;;;;;;5044913;28;20234;-91
2024/02/07 02:39:48;;;;;;;6.70;2.72;;;;;;;;;;5044418;28;20192;-91
2024/02/07 02:42:53;;;;;;;5.00;2.58;;;;;;;;;;5043471;28;20540;-90
2024/02/07 02:46:00;;;;;;;8.38;2.40;;;;;;;;;;5045124;28;20190;-89
2024/02/07 02:49:05;;;;;;;7.13;2.75;;;;;;;;;;5044726;28;20275;-91
2024/02/07 02:52:10;;;;;;;7.15;2.95;;;;;;;;;;5045229;28;20211;-89
2024/02/07 02:55:15;;;;;;;11.27;2.80;;;;;;;;;;5045303;28;20282;-89
2024/02/07 02:58:20;;;;;;;7.65;2.70;;;;;;;;;;5043621;28;20667;-89
2024/02/07 03:01:28;;;;;;;6.30;2.65;;;;;;;;;;5040209;28;20196;-90
2024/02/07 03:04:41;;;;;;;10.35;3.22;;;;;;;;;;5043221;28;20188;-91
2024/02/07 03:08:04;;;;;;;7.55;3.10;;;;;;;;;;5045749;28;20192;-90
2024/02/07 03:11:10;;;;;;;10.25;2.92;;;;;;;;;;5043633;28;20259;-89
2024/02/07 03:14:16;;;;;;;7.47;3.08;;;;;;;;;;5046369;28;20227;-90
2024/02/07 03:17:23;;;;;;;9.00;2.97;;;;;;;;;;5044943;28;20195;-89
2024/02/07 03:20:28;;;;;;;7.57;2.80;;;;;;;;;;5042623;28;20187;-90
2024/02/07 03:23:33;;;;;;;6.55;3.00;;;;;;;;;;5023375;28;20200;-91
2024/02/07 03:26:39;;;;;;;7.47;2.67;;;;;;;;;;5023811;28;20228;-90
2024/02/07 03:29:44;;;;;;;8.40;2.72;;;;;;;;;;5023552;28;20196;-90
2024/02/07 03:32:51;;;;;;;5.15;2.50;;;;;;;;;;5023730;28;20814;-89
2024/02/07 03:35:56;;;;;;;9.80;2.78;;;;;;;;;;5024463;28;20201;-89
2024/02/07 03:39:02;;;;;;;8.50;2.70;;;;;;;;;;5023205;28;20224;-89
2024/02/07 03:42:08;;;;;;;6.15;2.35;;;;;;;;;;5024253;28;20256;-88
2024/02/07 03:45:15;;;;;;;9.52;3.00;;;;;;;;;;5024157;28;20726;-90
2024/02/07 03:48:23;;;;;;;10.60;2.63;;;;;;;;;;5024442;28;20702;-90
2024/02/07 03:51:28;;;;;;;6.80;2.42;;;;;;;;;;5022898;28;20195;-90
2024/02/07 03:54:35;;;;;;;8.63;2.83;;;;;;;;;;5023322;28;20184;-90
2024/02/07 03:57:43;;;;;;;6.68;2.70;;;;;;;;;;5023508;28;20559;-90
2024/02/07 04:00:49;;;;;;;3.75;2.47;;;;;;;;;;5023199;28;20351;-90
2024/02/07 04:03:58;;;;;;;8.68;3.35;;;;;;;;;;5024170;28;20188;-90
2024/02/07 04:07:03;;;;;;;6.32;3.03;;;;;;;;;;5023217;28;20278;-89
2024/02/07 04:10:09;;;;;;;4.57;2.10;;;;;;;;;;5023512;28;20591;-91
2024/02/07 05:17:15;;;;;;;5.05;2.40;;;;;;;;;;5028990;28;20196;-91
2024/02/07 05:20:20;;;;;;;7.78;2.65;;;;;;;;;;5036881;28;20322;-92
2024/02/07 05:23:26;;;;;;;6.38;2.42;;;;;;;;;;5047837;28;20663;-90
2024/02/07 05:26:35;;;;;;;5.07;2.28;;;;;;;;;;5045868;28;20200;-90
2024/02/07 05:29:40;;;;;;;8.90;2.60;;;;;;;;;;5047359;28;20196;-90
2024/02/07 05:32:45;;;;;;;6.65;2.42;;;;;;;;;;5046684;28;20235;-90
2024/02/07 05:35:51;;;;;;;9.77;2.53;;;;;;;;;;5045018;28;20659;-90
2024/02/07 05:38:56;;;;;;;8.05;3.20;;;;;;;;;;5029738;28;20220;-89
2024/02/07 05:42:03;;;;;;;9.32;2.38;;;;;;;;;;5015253;28;20189;-91
2024/02/07 05:45:17;;;;;;;7.32;2.30;;;;;;;;;;5031343;28;20200;-90
2024/02/07 05:48:22;;;;;;;9.18;2.83;;;;;;;;;;5029685;28;20235;-91
2024/02/07 05:51:28;;;;;;;5.97;2.50;;;;;;;;;;5025277;28;20196;-90
2024/02/07 05:54:33;;;;;;;10.05;2.47;;;;;;;;;;5004794;28;20217;-90
2024/02/07 05:57:40;;;;;;;11.40;2.90;;;;;;;;;;5006882;28;20189;-91
2024/02/07 06:00:45;;;;;;;4.78;2.13;;;;;;;;;;5033855;28;20211;-91
2024/02/07 06:03:52;;;;;;;9.35;2.40;;;;;;;;;;5046890;28;20543;-91
2024/02/07 06:06:58;;;;;;;10.80;3.00;;;;;;;;;;5047496;28;20192;-90
2024/02/07 06:10:03;;;;;;;9.32;2.83;;;;;;;;;;5036600;28;20216;-92
2024/02/07 06:13:10;;;;;;;8.90;2.80;;;;;;;;;;5027172;28;20706;-89
2024/02/07 06:16:15;;;;;;;9.43;2.75;;;;;;;;;;5026239;28;20201;-90
2024/02/07 06:19:21;;;;;;;8.40;3.00;;;;;;;;;;5030625;28;20196;-90
2024/02/07 06:22:26;;;;;;;9.50;2.63;;;;;;;;;;5025049;28;20316;-88
2024/02/07 06:25:31;;;;;;;6.90;2.75;;;;;;;;;;5028746;28;20267;-91
2024/02/07 06:28:38;;;;;;;5.65;2.40;;;;;;;;;;5028036;28;20263;-90
2024/02/07 06:31:43;;;;;;;14.85;2.83;;;;;;;;;;5029262;28;20208;-91
2024/02/07 06:34:48;;;;;;;6.97;3.17;;;;;;;;;;5029046;28;20216;-89
2024/02/07 06:37:55;;;;;;;6.40;2.53;;;;;;;;;;5029963;28;20199;-89
2024/02/07 06:41:04;;;;;;;6.88;3.00;;;;;;;;;;5029292;28;20640;-88
2024/02/07 06:44:11;;;;;;;8.02;3.85;;;;;;;;;;5027735;28;20775;-89
2024/02/07 06:47:17;;;;;;;9.63;3.22;;;;;;;;;;5024406;28;20203;-90
2024/02/07 06:50:24;;;;;;;8.30;2.65;;;;;;;;;;5026533;28;20168;-91
2024/02/07 06:53:30;;;;;;;5.20;2.35;;;;;;;;;;5026119;28;20219;-93
2024/02/07 06:56:35;;;;;;;11.55;3.08;;;;;;;;;;5027453;28;20176;-89
2024/02/07 06:59:42;;;;;;;9.88;3.08;;;;;;;;;;5041673;28;20211;-90
2024/02/07 07:02:47;;;;;;;7.90;3.28;;;;;;;;;;5045118;28;20552;-92
2024/02/07 07:05:54;;;;;;;8.60;2.90;;;;;;;;;;5050677;28;20207;-89
2024/02/07 07:08:59;;;;;;;15.88;3.25;;;;;;;;;;5046835;28;20200;-90
2024/02/07 07:12:05;;;;;;;7.72;2.95;;;;;;;;;;5047164;28;20199;-92
2024/02/07 07:15:13;;;;;;;11.13;3.60;;;;;;;;;;5045053;28;20667;-92
2024/02/07 07:18:19;;;;;;;7.85;3.75;;;;;;;;;;5046423;28;20276;-90
2024/02/07 07:21:24;;;;;;;8.00;3.22;;;;;;;;;;5046981;28;20196;-90
2024/02/07 07:24:29;;;;;;;8.77;2.95;;;;;;;;;;5044588;28;20235;-90
2024/02/07 07:27:34;;;;;;;9.07;3.13;;;;;;;;;;5043504;28;20187;-88
2024/02/07 07:30:41;;;;;;;6.43;2.92;;;;;;;;;;5044663;28;20188;-90
2024/02/07 07:33:47;;;;;;;9.20;3.05;;;;;;;;;;5045509;28;20207;-90
2024/02/07 07:36:54;;;;;;;14.50;5.05;;;;;;;;;;5044279;28;20720;-90
2024/02/07 07:39:59;;;;;;;8.65;2.90;;;;;;;;;;5045558;28;20195;-89
2024/02/07 07:43:04;;;;;;;9.57;3.35;;;;;;;;;;5045040;28;20199;-87
2024/02/07 07:46:11;;;;;;;11.20;3.28;;;;;;;;;;5043398;28;20203;-92
2024/02/07 07:49:17;;;;;;;4.20;2.13;;;;;;;;;;5033554;28;20267;-90
2024/02/07 07:52:23;;;;;;;8.18;2.40;;;;;;;;;;5032569;28;20212;-90
2024/02/07 07:55:30;;;;;;;7.45;2.70;;;;;;;;;;5004154;28;20170;-89
2024/02/07 07:58:38;;;;;;;6.05;2.70;;;;;;;;;;5010552;28;20201;-89
2024/02/07 08:05:06;;;;;;;6.53;2.33;;;;;;;;;;5009192;28;20194;-90
2024/02/07 08:08:12;;;;;;;6.72;2.25;;;;;;;;;;5019468;28;20203;-90
2024/02/07 08:11:18;;;;;;;7.03;2.40;;;;;;;;;;5037793;28;20589;-91
2024/02/07 08:14:27;;;;;;;5.82;2.70;;;;;;;;;;5033401;28;20224;-91
2024/02/07 08:17:49;;;;;;;7.70;2.60;;;;;;;;;;5035393;28;20184;-89
2024/02/07 08:21:00;;;;;;;7.25;2.60;;;;;;;;;;5028836;28;20211;-91
2024/02/07 08:24:06;;;;;;;7.68;3.70;;;;;;;;;;5028985;28;20216;-91
2024/02/07 08:27:12;;;;;;;7.47;2.75;;;;;;;;;;5026957;28;20203;-89
2024/02/07 08:30:21;;;;;;;7.90;2.50;;;;;;;;;;5027964;28;20200;-92
2024/02/07 08:33:27;;;;;;;6.07;2.50;;;;;;;;;;5020441;28;20255;-89
2024/02/07 08:36:40;;;;;;;7.70;3.30;;;;;;;;;;5034356;28;20220;-89
2024/02/07 08:39:46;;;;;;;7.65;2.05;;;;;;;;;;5031013;28;20233;-89
2024/02/07 08:42:52;;;;;;;6.60;2.58;;;;;;;;;;5031996;28;20269;-90
2024/02/07 08:46:02;;;;;;;5.38;2.28;;;;;;;;;;5043838;28;20192;-90
2024/02/07 08:49:08;;;;;;;5.32;2.28;;;;;;;;;;5026388;28;20201;-89
2024/02/07 08:52:16;;;;;;;8.52;2.05;;;;;;;;;;5028900;28;20236;-93
2024/02/07 08:58:41;;;;;;;3.17;1.65;;;;;;;;;;5025016;28;20188;-90
2024/02/07 09:01:46;;;;;;;5.43;2.25;;;;;;;;;;5027918;28;20844;-91
2024/02/07 09:04:52;;;;;;;7.15;1.88;;;;;;;;;;5035010;28;20175;-91
2024/02/07 09:08:05;;;;;;;13.15;2.42;;;;;;;;;;5027348;28;20296;-90
2024/02/07 09:11:11;;;;;;;7.93;2.20;;;;;;;;;;5028686;28;20204;-91
2024/02/07 09:14:17;;;;;;;9.93;1.95;;;;;;;;;;5028824;28;20223;-89
2024/02/07 09:17:31;;;;;;;5.65;2.08;;;;;;;;;;5028715;28;20235;-89
2024/02/07 09:20:39;;;;;;;8.65;2.30;;;;;;;;;;5008629;28;20193;-89
2024/02/07 09:23:55;;;;;;;7.60;1.75;;;;;;;;;;5010775;28;20185;-88
2024/02/07 09:27:00;;;;;;;7.30;1.83;;;;;;;;;;5021876;28;20235;-88
2024/02/07 09:30:10;;;;;;;6.45;2.08;;;;;;;;;;5029679;28;20196;-90
2024/02/07 09:33:15;;;;;;;12.70;1.95;;;;;;;;;;5028405;28;20199;-89
2024/02/07 09:36:21;;;;;;;6.80;1.80;;;;;;;;;;5020706;28;20265;-90
2024/02/07 09:39:29;;;;;;;6.53;1.80;;;;;;;;;;5012963;28;20197;-90
2024/02/07 09:42:37;;;;;;;8.05;1.70;;;;;;;;;;5011160;28;20724;-90
2024/02/07 09:45:43;;;;;;;8.25;1.88;;;;;;;;;;5053202;28;20272;-89
2024/02/07 09:48:49;;;;;;;6.85;1.90;;;;;;;;;;5052598;28;20238;-90
2024/02/07 09:51:56;;;;;;;7.80;2.05;;;;;;;;;;5052702;28;20188;-91
2024/02/07 09:55:08;;;;;;;2.22;1.42;;;;;;;;;;5052609;28;20246;-90
2024/02/07 09:58:14;;;;;;;5.85;1.98;;;;;;;;;;5052401;28;20267;-90
2024/02/07 10:01:20;;;;;;;8.50;2.20;;;;;;;;;;5053003;28;20167;-90
2024/02/07 10:04:28;;;;;;;9.18;1.92;;;;;;;;;;5051960;28;20231;-90
2024/02/07 10:10:57;;;;;;;6.65;2.35;;;;;;;;;;5050259;28;20204;-91
2024/02/07 10:14:03;;;;;;;4.63;1.80;;;;;;;;;;5048936;28;20215;-92
2024/02/07 10:17:08;;;;;;;6.93;1.65;;;;;;;;;;5046279;28;20208;-86
2024/02/07 10:20:15;;;;;;;6.57;1.80;;;;;;;;;;5007478;28;20193;-89
2024/02/07 10:23:21;;;;;;;11.32;2.72;;;;;;;;;;5008066;28;20189;-89
2024/02/07 10:26:27;;;;;;;6.68;1.40;;;;;;;;;;5006871;28;20286;-89
2024/02/07 10:29:32;;;;;;;4.75;1.70;;;;;;;;;;5007871;28;20189;-90
2024/02/07 10:32:38;;;;;;;3.83;1.50;;;;;;;;;;5008598;28;20212;-88
2024/02/07 10:35:45;;;;;;;7.93;2.45;;;;;;;;;;5010891;28;20224;-89
2024/02/07 10:38:50;;;;;;;5.45;1.80;;;;;;;;;;5007115;28;20202;-90
2024/02/07 10:42:00;;;;;;;6.20;2.08;;;;;;;;;;5011359;28;20193;-92
2024/02/07 10:45:10;;;;;;;4.85;1.70;;;;;;;;;;5009339;28;20189;-91
2024/02/07 10:48:16;;;;;;;8.38;2.08;;;;;;;;;;5008692;28;20201;-92
2024/02/07 10:51:22;;;;;;;3.35;1.60;;;;;;;;;;5008883;28;20185;-89
2024/02/07 10:54:27;;;;;;;5.50;1.58;;;;;;;;;;5009371;28;20319;-90
2024/02/07 10:57:41;;;;;;;10.35;1.85;;;;;;;;;;5011877;28;20197;-90
2024/02/07 11:00:46;;;;;;;3.35;1.40;;;;;;;;;;5012157;28;20245;-88
2024/02/07 11:03:52;;;;;;;5.82;1.73;;;;;;;;;;5014281;28;20180;-90
2024/02/07 11:06:58;;;;;;;4.30;1.70;;;;;;;;;;5008371;28;20189;-89
2024/02/07 11:10:03;;;;;;;7.53;2.00;;;;;;;;;;5007538;28;20286;-88
2024/02/07 11:13:11;;;;;;;5.00;1.50;;;;;;;;;;5006559;28;20193;-89
2024/02/07 11:16:17;;;;;;;12.38;1.85;;;;;;;;;;5007314;28;20204;-90
2024/02/07 11:19:22;;;;;;;7.05;1.70;;;;;;;;;;5007220;28;20229;-90
2024/02/07 11:22:29;;;;;;;4.97;1.77;;;;;;;;;;5006524;28;20205;-90
2024/02/07 11:25:35;;;;;;;4.38;1.48;;;;;;;;;;5004543;28;20325;-90
2024/02/07 11:28:43;;;;;;;4.47;1.63;;;;;;;;;;5006968;28;20216;-90
2024/02/07 11:31:48;;;;;;;6.22;1.63;;;;;;;;;;5006699;28;20213;-91
2024/02/07 11:34:57;;;;;;;5.30;1.70;;;;;;;;;;5005619;28;20292;-91
2024/02/07 11:38:03;;;;;;;8.27;1.85;;;;;;;;;;5006439;28;20185;-89
2024/02/07 11:41:08;;;;;;;5.80;1.40;;;;;;;;;;5004825;28;20185;-90
2024/02/07 11:44:16;;;;;;;6.22;1.83;;;;;;;;;;5006995;28;20180;-90
2024/02/07 11:47:25;;;;;;;10.50;1.77;;;;;;;;;;5005724;28;20262;-91
2024/02/07 11:50:35;;;;;;;8.00;1.83;;;;;;;;;;5006502;28;20198;-89
2024/02/07 11:53:41;;;;;;;6.43;1.67;;;;;;;;;;5009450;28;20181;-90
2024/02/07 11:56:55;;;;;;;7.13;1.40;;;;;;;;;;5012919;28;20181;-91
2024/02/07 12:00:08;;;;;;;5.35;1.90;;;;;;;;;;5006579;28;20184;-91
2024/02/07 12:03:14;;;;;;;4.13;1.60;;;;;;;;;;5009970;28;20196;-91
2024/02/07 12:06:20;;;;;;;6.68;1.80;;;;;;;;;;5006814;28;20208;-90
2024/02/07 12:15:21;;;;;;;5.18;2.00;;;;;;;;;;5189621;23;20230;-88
2024/02/07 12:18:34;;;;;;;5.15;1.83;;;;;;;;;;4986563;28;20193;-90
2024/02/07 12:21:46;;;;;;;4.32;2.03;;;;;;;;;;4989754;28;20187;-92
2024/02/07 12:24:53;;;;;;;6.50;1.90;;;;;;;;;;4985248;28;20197;-91
2024/02/07 12:28:09;;;;;;;9.30;2.70;;;;;;;;;;4983561;28;20190;-90
2024/02/07 12:31:16;;;;;;;4.30;1.83;;;;;;;;;;4989183;28;20197;-90
2024/02/07 12:34:26;;;;;;;6.30;1.40;;;;;;;;;;4986254;28;20189;-90
2024/02/07 12:37:34;;;;;;;6.57;1.50;;;;;;;;;;4985911;28;20201;-90
2024/02/07 12:40:39;;;;;;;4.35;1.40;;;;;;;;;;4987658;28;20198;-91
2024/02/07 12:43:45;;;;;;;8.07;1.63;;;;;;;;;;4985712;28;20271;-92
2024/02/07 12:46:52;;;;;;;8.35;1.95;;;;;;;;;;4983411;28;20294;-92
2024/02/07 12:49:58;;;;;;;6.43;1.80;;;;;;;;;;4983801;28;20236;-91
2024/02/07 12:53:03;;;;;;;6.95;1.80;;;;;;;;;;4982889;28;20213;-91
2024/02/07 12:56:17;;;;;;;9.65;1.90;;;;;;;;;;4983722;28;20217;-91
2024/02/07 12:59:32;;;;;;;5.03;1.60;;;;;;;;;;4983845;28;20193;-91
2024/02/07 13:02:46;;;;;;;6.55;1.45;;;;;;;;;;4966828;29;20206;-91
2024/02/07 13:05:52;;;;;;;2.80;1.23;;;;;;;;;;4964148;29;20198;-92
2024/02/07 13:08:57;;;;;;;4.82;1.48;;;;;;;;;;4963341;29;20191;-91
2024/02/07 13:12:02;;;;;;;7.10;1.38;;;;;;;;;;4967333;29;20210;-92
2024/02/07 13:15:08;;;;;;;7.15;1.60;;;;;;;;;;4969534;29;20336;-92
2024/02/07 13:18:14;;;;;;;7.47;1.92;;;;;;;;;;4971372;28;20374;-90
2024/02/07 13:21:20;;;;;;;11.10;2.38;;;;;;;;;;4969030;29;20329;-90
2024/02/07 13:24:29;;;;;;;2.90;1.10;;;;;;;;;;4968418;29;20214;-90
2024/02/07 13:27:37;;;;;;;4.53;1.45;;;;;;;;;;4970350;29;20194;-90
2024/02/07 13:30:43;;;;;;;3.30;1.30;;;;;;;;;;4972113;29;20199;-90
2024/02/07 13:33:50;;;;;;;3.58;1.17;;;;;;;;;;4972563;29;20226;-91
2024/02/07 13:36:55;;;;;;;4.60;1.50;;;;;;;;;;4980855;28;20197;-90
2024/02/07 13:40:01;;;;;;;3.90;1.20;;;;;;;;;;5007882;28;20189;-90
2024/02/07 13:43:06;;;;;;;2.97;1.30;;;;;;;;;;5008394;28;20197;-91
2024/02/07 13:46:11;;;;;;;7.75;1.77;;;;;;;;;;5004242;28;20253;-89
2024/02/07 13:49:20;;;;;;;6.22;1.60;;;;;;;;;;4994116;28;20193;-91
2024/02/07 13:52:31;;;;;;;5.53;1.48;;;;;;;;;;4998127;28;20311;-90
2024/02/07 13:55:36;;;;;;;3.08;1.48;;;;;;;;;;4989089;28;20222;-90
2024/02/07 13:58:43;;;;;;;2.35;1.38;;;;;;;;;;4989119;28;20194;-91
2024/02/07 14:01:48;;;;;;;3.92;1.10;;;;;;;;;;4989000;28;20193;-90
2024/02/07 14:04:55;;;;;;;4.00;1.33;;;;;;;;;;5002151;28;20646;-91
2024/02/07 14:08:01;;;;;;;2.72;1.55;;;;;;;;;;5008145;28;20205;-89
2024/02/07 14:11:06;;;;;;;5.45;1.63;;;;;;;;;;5010601;28;20197;-90
2024/02/07 14:14:14;;;;;;;4.40;1.15;;;;;;;;;;5011468;28;20220;-91
2024/02/07 14:17:19;;;;;;;3.47;1.45;;;;;;;;;;5007484;28;20193;-89
2024/02/07 14:20:26;;;;;;;3.67;1.40;;;;;;;;;;5007720;28;20293;-90
2024/02/07 14:23:31;;;;;;;2.90;1.30;;;;;;;;;;5006054;28;20216;-90
2024/02/07 14:26:40;;;;;;;5.63;1.33;;;;;;;;;;4986793;28;20395;-91
2024/02/07 14:29:49;;;;;;;3.55;1.50;;;;;;;;;;4989562;28;20199;-91
2024/02/07 14:32:57;;;;;;;3.40;1.40;;;;;;;;;;4989618;28;20201;-91
2024/02/07 14:36:05;;;;;;;3.60;1.65;;;;;;;;;;4989365;28;20728;-90
2024/02/07 14:39:11;;;;;;;8.02;2.40;;;;;;;;;;4986800;28;20194;-90
2024/02/07 14:42:16;;;;;;;5.45;1.98;;;;;;;;;;4987699;28;20185;-93
2024/02/07 14:45:21;;;;;;;6.75;1.70;;;;;;;;;;4987353;28;20561;-90
2024/02/07 14:48:27;;;;;;;4.55;1.70;;;;;;;;;;4989747;28;20190;-92
2024/02/07 14:55:08;;;;;;;4.00;1.63;;;;;;;;;;4967677;29;20254;-92
2024/02/07 14:58:14;;;;;;;5.05;1.30;;;;;;;;;;4984393;28;20198;-91
2024/02/07 15:01:20;;;;;;;3.63;1.10;;;;;;;;;;4980531;28;20194;-92
2024/02/07 15:04:29;;;;;;;7.57;1.77;;;;;;;;;;4980721;28;20657;-92
2024/02/07 15:10:54;;;;;;;3.17;1.55;;;;;;;;;;4971704;29;20287;-91
2024/02/07 15:14:01;;;;;;;6.72;2.15;;;;;;;;;;4980727;28;20206;-91
2024/02/07 15:17:06;;;;;;;6.93;2.50;;;;;;;;;;4985184;28;20225;-93
2024/02/07 15:20:13;;;;;;;11.25;2.10;;;;;;;;;;4974128;28;20309;-90
2024/02/07 15:23:19;;;;;;;8.30;2.20;;;;;;;;;;4966940;29;20334;-92
2024/02/07 15:26:27;;;;;;;6.18;1.80;;;;;;;;;;4978276;28;20186;-90
2024/02/07 15:29:35;;;;;;;6.35;2.28;;;;;;;;;;4977751;28;20238;-91
2024/02/07 15:32:40;;;;;;;12.05;2.42;;;;;;;;;;4977902;28;20190;-91
2024/02/07 15:35:48;;;;;;;4.55;1.80;;;;;;;;;;4980753;28;20226;-91
2024/02/07 15:38:55;;;;;;;5.20;2.03;;;;;;;;;;5000979;28;20284;-89
2024/02/07 15:42:04;;;;;;;4.28;1.63;;;;;;;;;;5009845;28;20193;-91
2024/02/07 15:45:11;;;;;;;4.72;2.15;;;;;;;;;;5007840;28;20186;-89
2024/02/07 15:48:16;;;;;;;5.90;2.90;;;;;;;;;;5005489;28;20185;-90
2024/02/07 15:51:24;;;;;;;6.30;1.50;;;;;;;;;;5007015;28;20544;-90
2024/02/07 15:54:29;;;;;;;3.13;1.70;;;;;;;;;;5005714;28;20189;-90
2024/02/07 15:57:36;;;;;;;8.48;2.20;;;;;;;;;;5006299;28;20228;-92
2024/02/07 16:00:41;;;;;;;6.53;2.08;;;;;;;;;;5006932;28;20651;-92
2024/02/07 16:03:47;;;;;;;6.25;2.70;;;;;;;;;;5008114;28;20185;-91
2024/02/07 16:06:55;;;;;;;6.20;2.53;;;;;;;;;;5005402;28;20282;-91
2024/02/07 16:10:00;;;;;;;4.78;1.90;;;;;;;;;;5003871;28;20213;-90
2024/02/07 16:13:07;;;;;;;6.97;1.60;;;;;;;;;;5004692;28;20182;-91
2024/02/07 16:16:14;;;;;;;5.10;1.83;;;;;;;;;;5005628;28;20208;-91
2024/02/07 16:19:28;;;;;;;8.82;2.08;;;;;;;;;;5005753;28;20194;-92
2024/02/07 16:22:33;;;;;;;7.72;2.10;;;;;;;;;;5009914;28;20201;-92
2024/02/07 16:25:39;;;;;;;9.77;2.97;;;;;;;;;;5001747;28;20269;-90
2024/02/07 16:28:49;;;;;;;7.03;1.92;;;;;;;;;;4985358;28;20260;-90
2024/02/07 16:31:55;;;;;;;6.05;2.05;;;;;;;;;;4988761;28;20197;-92
2024/02/07 16:35:04;;;;;;;4.28;2.25;;;;;;;;;;4990678;28;20266;-90
2024/02/07 16:38:12;;;;;;;5.72;2.00;;;;;;;;;;4986904;28;20221;-92
2024/02/07 16:41:18;;;;;;;6.65;2.58;;;;;;;;;;4994317;28;20321;-91
2024/02/07 16:44:27;;;;;;;4.60;1.85;;;;;;;;;;4987781;28;20198;-91
2024/02/07 16:47:34;;;;;;;8.32;2.30;;;;;;;;;;4987800;28;20189;-90
2024/02/07 16:50:40;;;;;;;6.88;2.63;;;;;;;;;;4992285;28;20201;-92
2024/02/07 17:00:41;;;;;;;7.07;2.80;;;;;;;;;;4994018;28;20198;-91
2024/02/07 17:03:50;;;;;;;4.72;2.38;;;;;;;;;;4993601;28;20192;-92
2024/02/07 17:06:56;;;;;;;8.07;2.72;;;;;;;;;;4990064;28;20193;-92
2024/02/07 17:10:01;;;;;;;5.95;2.80;;;;;;;;;;4989449;28;20193;-91
2024/02/07 17:13:07;;;;;;;7.22;2.95;;;;;;;;;;4991892;28;20189;-91
2024/02/07 17:16:14;;;;;;;5.95;2.45;;;;;;;;;;4990782;28;20283;-91
2024/02/07 17:19:20;;;;;;;5.60;2.40;;;;;;;;;;4990980;28;20276;-90
2024/02/07 17:22:25;;;;;;;7.03;2.67;;;;;;;;;;4988889;28;20190;-92
2024/02/07 17:25:42;;;;;;;9.38;2.65;;;;;;;;;;4990593;28;20198;-90
2024/02/07 17:28:52;;;;;;;7.10;2.10;;;;;;;;;;4994286;28;20193;-89
2024/02/07 17:32:00;;;;;;;6.97;2.50;;;;;;;;;;4989789;28;20217;-90
2024/02/07 17:35:07;;;;;;;10.05;3.15;;;;;;;;;;4993661;28;20199;-92
2024/02/07 17:38:21;;;;;;;8.35;2.90;;;;;;;;;;4991677;28;20210;-90
2024/02/07 17:41:37;;;;;;;9.50;3.92;;;;;;;;;;4972854;28;20190;-91
2024/02/07 17:44:56;;;;;;;7.50;3.30;;;;;;;;;;4972222;29;20194;-92
2024/02/07 17:48:09;;;;;;;6.45;3.35;;;;;;;;;;4968696;28;20194;-92
2024/02/07 17:51:15;;;;;;;6.03;2.92;;;;;;;;;;4967799;28;20281;-91
2024/02/07 17:54:20;;;;;;;8.73;3.30;;;;;;;;;;4968898;29;20190;-91
2024/02/07 17:57:31;;;;;;;8.88;3.65;;;;;;;;;;4969542;28;20214;-91
2024/02/07 18:00:37;;;;;;;14.05;6.40;;;;;;;;;;4973403;29;20211;-91
2024/02/07 18:03:44;;;;;;;11.40;4.18;;;;;;;;;;4974542;28;20207;-92
2024/02/07 18:06:49;;;;;;;10.82;4.28;;;;;;;;;;4984034;28;20210;-92
2024/02/07 18:09:55;;;;;;;9.48;4.00;;;;;;;;;;4991292;28;20270;-93
2024/02/07 18:13:02;;;;;;;12.40;4.18;;;;;;;;;;4990447;28;20278;-92
2024/02/07 18:16:11;;;;;;;20.02;9.40;;;;;;;;;;4991206;28;20281;-91
2024/02/07 18:19:28;;;;;;;10.48;3.70;;;;;;;;;;4985823;28;20196;-91
2024/02/07 18:22:37;;;;;;;11.77;4.85;;;;;;;;;;4990554;28;20221;-91
2024/02/07 18:25:50;;;;;;;12.38;3.83;;;;;;;;;;4991083;28;20209;-92
2024/02/07 18:28:58;;;;;;;13.43;4.82;;;;;;;;;;4986616;28;20186;-91
2024/02/07 18:35:39;;;;;;;13.88;4.13;;;;;;;;;;4973541;28;20694;-92
2024/02/07 18:38:48;;;;;;;10.43;3.30;;;;;;;;;;4991119;28;20229;-92
2024/02/07 18:42:01;;;;;;;7.00;3.60;;;;;;;;;;4993590;28;20275;-91
2024/02/07 18:45:08;;;;;;;6.15;3.03;;;;;;;;;;4991330;28;20202;-91
2024/02/07 18:48:19;;;;;;;13.73;4.47;;;;;;;;;;4992219;28;20198;-90
2024/02/07 18:51:29;;;;;;;10.45;5.05;;;;;;;;;;4974667;28;20210;-92
2024/02/07 18:54:45;;;;;;;11.90;4.57;;;;;;;;;;4969934;29;20202;-91
2024/02/07 18:57:52;;;;;;;10.93;4.72;;;;;;;;;;4970219;28;20238;-91
2024/02/07 19:00:58;;;;;;;13.73;4.50;;;;;;;;;;4971882;28;20181;-93
2024/02/07 19:04:04;;;;;;;17.85;5.13;;;;;;;;;;4973098;28;20202;-89
2024/02/07 19:07:10;;;;;;;14.50;6.07;;;;;;;;;;4981219;28;20205;-92
2024/02/07 19:10:16;;;;;;;19.88;6.53;;;;;;;;;;4988648;28;20186;-94
2024/02/07 23:02:44;;;;;;;17.35;6.00;;;;;;;;;;5003188;23;20245;-93
2024/02/07 23:05:51;;;;;;;14.15;4.80;;;;;;;;;;4990096;28;20560;-91
2024/02/07 23:08:57;;;;;;;11.20;4.82;;;;;;;;;;4990514;28;20205;-92
2024/02/07 23:12:05;;;;;;;13.00;5.15;;;;;;;;;;4990456;28;20206;-94
2024/02/07 23:15:11;;;;;;;14.88;5.30;;;;;;;;;;4990967;28;20214;-92
2024/02/07 23:18:21;;;;;;;13.82;4.93;;;;;;;;;;4991677;28;20260;-93
2024/02/07 23:21:27;;;;;;;16.15;5.63;;;;;;;;;;4993038;28;20237;-94
2024/02/07 23:24:33;;;;;;;13.13;4.88;;;;;;;;;;4989905;28;20194;-92
2024/02/07 23:27:38;;;;;;;19.63;5.43;;;;;;;;;;4990089;28;20302;-93
2024/02/07 23:30:45;;;;;;;12.23;4.07;;;;;;;;;;4988429;28;20276;-93
2024/02/07 23:33:51;;;;;;;19.08;5.00;;;;;;;;;;4989489;28;20200;-93
2024/02/07 23:36:56;;;;;;;15.68;5.60;;;;;;;;;;4970057;29;20243;-91
2024/02/07 23:40:02;;;;;;;14.02;5.43;;;;;;;;;;4970169;28;20337;-91
2024/02/07 23:43:13;;;;;;;15.25;5.60;;;;;;;;;;4970845;29;20758;-91
2024/02/07 23:46:20;;;;;;;13.75;4.68;;;;;;;;;;4969805;29;20190;-91
2024/02/07 23:49:28;;;;;;;12.00;4.72;;;;;;;;;;4970150;29;20215;-92
2024/02/07 23:52:35;;;;;;;14.88;5.43;;;;;;;;;;4969054;29;20182;-90
2024/02/07 23:55:40;;;;;;;14.88;6.07;;;;;;;;;;4968955;28;20206;-90
2024/02/07 23:58:45;;;;;;;10.32;3.85;;;;;;;;;;4968887;29;20235;-91
